Time;durP1;ratioP1;P1;durP2;ratioP2;P2;SDS_P1;SDS_P2;PMS_P1;PMS_P2;Temp;Humidity;BMP_temperature;BMP_pressure;BME280_temperature;BME280_humidity;BME280_pressure;Samples;Min_cycle;Max_cycle;Signal;HPM_P1;HPM_P2
2022/12/15 00:40:59;;;;;;;1.25;0.60;;;17.60;1.00;;;;;;5033999;28;20107;-38
2022/12/15 00:43:27;;;;;;;0.90;0.30;;;17.60;1.00;;;;;;5033528;28;20103;-38
2022/12/15 00:48:41;;;;;;;1.25;0.25;;;17.50;1.00;;;;;;5033899;28;20049;-38
2022/12/15 00:51:09;;;;;;;1.23;0.20;;;17.40;1.00;;;;;;5033821;28;20553;-38
2022/12/15 01:21:15;;;;;;;0.52;0.22;;;17.00;1.00;;;;;;5033236;28;20124;-38
2022/12/15 01:23:42;;;;;;;1.20;0.28;;;16.90;1.00;;;;;;5032756;28;20120;-38
2022/12/15 01:26:08;;;;;;;1.08;0.20;;;16.90;1.00;;;;;;5033143;28;20117;-38
2022/12/15 01:28:35;;;;;;;0.60;0.25;;;16.90;1.00;;;;;;5033135;28;20551;-38
2022/12/15 01:31:10;;;;;;;0.68;0.32;;;16.90;1.00;;;;;;5032991;28;20045;-38
2022/12/15 01:33:38;;;;;;;1.15;0.20;;;16.80;1.00;;;;;;5032668;28;20049;-38
2022/12/15 01:36:05;;;;;;;2.00;0.43;;;16.80;1.00;;;;;;5032982;28;20140;-38
2022/12/15 01:38:32;;;;;;;0.95;0.30;;;16.80;1.00;;;;;;5032899;28;20058;-38
2022/12/15 01:41:05;;;;;;;0.57;0.20;;;16.70;1.00;;;;;;5032811;28;20125;-38
2022/12/15 01:43:36;;;;;;;2.40;0.35;;;16.70;1.00;;;;;;5032446;28;20543;-38
2022/12/15 01:46:07;;;;;;;1.17;0.30;;;16.70;1.00;;;;;;5032768;28;20041;-38
2022/12/15 01:48:53;;;;;;;1.42;0.25;;;16.60;1.00;;;;;;5032718;28;20493;-38
2022/12/15 01:51:31;;;;;;;0.80;0.32;;;16.60;1.00;;;;;;5032751;28;20092;-38
2022/12/15 01:54:05;;;;;;;2.17;0.52;;;16.60;1.00;;;;;;5032409;28;20480;-38
2022/12/15 01:56:35;;;;;;;0.98;0.30;;;16.50;1.00;;;;;;5032540;28;20053;-38
2022/12/15 01:59:07;;;;;;;1.30;0.30;;;16.50;1.00;;;;;;5032697;28;20049;-38
2022/12/15 02:01:34;;;;;;;1.23;0.30;;;16.50;1.00;;;;;;5032557;28;20102;-38
2022/12/15 02:04:02;;;;;;;1.85;0.30;;;16.40;1.00;;;;;;5032070;28;20095;-38
2022/12/15 02:06:29;;;;;;;1.20;0.30;;;16.40;1.00;;;;;;5032415;28;20113;-38
2022/12/15 02:08:58;;;;;;;2.85;0.55;;;16.40;1.00;;;;;;5032298;28;20042;-38
2022/12/15 02:11:31;;;;;;;0.80;0.22;;;16.30;1.00;;;;;;5032301;28;20587;-38
2022/12/15 02:14:01;;;;;;;2.63;0.50;;;16.30;1.00;;;;;;5031820;28;20038;-38
2022/12/15 02:16:37;;;;;;;1.30;0.30;;;16.30;1.00;;;;;;5032281;28;20485;-38
2022/12/15 02:19:55;;;;;;;1.23;0.20;;;16.20;1.00;;;;;;5032285;28;20111;-38
2022/12/15 02:22:46;;;;;;;0.93;0.30;;;16.20;1.00;;;;;;5008922;28;20053;-38
2022/12/15 02:25:25;;;;;;;2.03;0.50;;;16.20;1.00;;;;;;5032138;28;20083;-38
2022/12/15 02:27:58;;;;;;;1.80;0.22;;;16.10;1.00;;;;;;5032152;28;20045;-38
2022/12/15 02:30:33;;;;;;;0.40;0.17;;;16.10;1.00;;;;;;5032101;28;20056;-38
2022/12/15 02:33:24;;;;;;;2.00;0.40;;;16.10;1.00;;;;;;5031704;28;20042;-38
2022/12/15 02:36:01;;;;;;;1.13;0.20;;;16.00;1.00;;;;;;5031961;28;20065;-38
2022/12/15 02:38:36;;;;;;;1.00;0.30;;;16.00;1.00;;;;;;5032011;28;20043;-38
2022/12/15 02:41:05;;;;;;;2.83;0.70;;;15.90;1.00;;;;;;5031926;28;20041;-38
2022/12/15 02:43:35;;;;;;;0.93;0.10;;;15.90;1.00;;;;;;5031571;28;20048;-38
2022/12/15 02:46:30;;;;;;;0.75;0.20;;;15.90;1.00;;;;;;5031931;28;20037;-38
2022/12/15 02:49:12;;;;;;;1.95;0.25;;;15.80;1.00;;;;;;5031884;28;20037;-38
2022/12/15 02:51:43;;;;;;;2.20;0.47;;;15.80;1.00;;;;;;5031861;28;20047;-38
2022/12/15 02:54:39;;;;;;;3.22;0.20;;;15.70;1.00;;;;;;5031546;28;20112;-39
2022/12/15 02:57:55;;;;;;;1.52;0.45;;;15.70;1.00;;;;;;5031801;28;20077;-38
2022/12/15 03:00:22;;;;;;;2.00;0.50;;;15.70;1.00;;;;;;5028601;28;20115;-39
2022/12/15 03:02:53;;;;;;;3.90;0.77;;;15.60;1.00;;;;;;5031270;28;20053;-39
2022/12/15 03:05:23;;;;;;;3.65;0.22;;;15.60;1.00;;;;;;5031635;28;20501;-39
2022/12/15 03:07:51;;;;;;;2.60;0.45;;;15.60;1.00;;;;;;5031592;28;20497;-38
2022/12/15 03:10:22;;;;;;;2.63;0.30;;;15.60;1.00;;;;;;5031757;28;20128;-39
2022/12/15 03:12:49;;;;;;;1.75;0.90;;;15.50;1.00;;;;;;5031403;28;20037;-39
2022/12/15 03:15:17;;;;;;;1.63;0.20;;;15.50;1.00;;;;;;5031549;28;20041;-38
2022/12/15 03:17:44;;;;;;;2.10;0.30;;;15.50;1.00;;;;;;5031481;28;20081;-38
2022/12/15 03:20:10;;;;;;;1.55;0.30;;;15.50;1.00;;;;;;5031701;28;20057;-38
2022/12/15 03:22:38;;;;;;;0.50;0.17;;;15.50;1.00;;;;;;5031361;28;20091;-39
2022/12/15 03:25:05;;;;;;;0.95;0.20;;;15.40;1.00;;;;;;5031357;28;20034;-39
2022/12/15 03:27:31;;;;;;;0.90;0.35;;;15.40;1.00;;;;;;5031537;28;20045;-38
2022/12/15 03:29:58;;;;;;;1.70;0.32;;;15.40;1.00;;;;;;5031458;28;20049;-38
2022/12/15 03:32:25;;;;;;;1.25;0.10;;;15.30;1.00;;;;;;5029994;28;20050;-38
2022/12/15 03:34:52;;;;;;;1.25;0.25;;;15.40;1.00;;;;;;5033404;28;20125;-40
2022/12/15 03:37:18;;;;;;;1.20;0.17;;;15.30;1.00;;;;;;5035153;28;20073;-39
2022/12/15 03:39:46;;;;;;;0.93;0.30;;;15.30;1.00;;;;;;5035259;28;20107;-39
2022/12/15 03:42:13;;;;;;;3.05;0.30;;;15.30;1.00;;;;;;5034912;28;20050;-38
2022/12/15 03:44:40;;;;;;;1.58;0.35;;;15.20;1.00;;;;;;5034674;28;20087;-38
2022/12/15 03:47:06;;;;;;;3.67;0.30;;;15.20;1.00;;;;;;5035027;28;20140;-38
2022/12/15 03:49:33;;;;;;;1.40;0.28;;;15.20;1.00;;;;;;5034998;28;20065;-38
2022/12/15 03:52:00;;;;;;;1.73;0.25;;;15.20;1.00;;;;;;5034844;28;20099;-38
2022/12/15 03:54:26;;;;;;;2.50;0.63;;;15.20;1.00;;;;;;5034609;28;20095;-38
2022/12/15 03:56:53;;;;;;;0.95;0.45;;;15.10;1.00;;;;;;5035075;28;20045;-38
2022/12/15 03:59:20;;;;;;;0.68;0.17;;;15.10;1.00;;;;;;5034772;28;20045;-38
2022/12/15 04:01:47;;;;;;;1.40;0.40;;;15.10;1.00;;;;;;5034703;28;20124;-38
2022/12/15 04:04:15;;;;;;;0.98;0.73;;;15.10;1.00;;;;;;5034395;28;20049;-38
2022/12/15 04:06:41;;;;;;;1.48;0.43;;;15.10;1.00;;;;;;5034694;28;20513;-38
2022/12/15 04:09:08;;;;;;;0.93;0.52;;;15.00;1.00;;;;;;5034602;28;20045;-39
2022/12/15 04:11:35;;;;;;;0.90;0.30;;;15.00;1.00;;;;;;5034601;28;20048;-39
2022/12/15 04:14:01;;;;;;;2.25;0.35;;;15.00;1.00;;;;;;5049265;28;20057;-39
2022/12/15 04:16:28;;;;;;;1.05;0.32;;;15.00;1.00;;;;;;5034518;28;20121;-38
2022/12/15 04:21:42;;;;;;;0.88;0.35;;;14.90;1.00;;;;;;5013470;28;20061;-38
2022/12/15 05:33:19;;;;;;;2.13;0.35;;;14.40;1.00;;;;;;5032628;28;20128;-38
2022/12/15 05:35:46;;;;;;;1.48;0.68;;;14.40;1.00;;;;;;5032985;28;20045;-38
2022/12/15 05:38:12;;;;;;;3.00;1.48;;;14.40;1.00;;;;;;5033046;28;20103;-38
2022/12/15 05:40:39;;;;;;;1.02;0.35;;;14.40;1.00;;;;;;5032913;28;20052;-39
2022/12/15 05:43:06;;;;;;;1.48;0.50;;;14.30;1.00;;;;;;5032602;28;20452;-38
2022/12/15 05:45:32;;;;;;;0.98;0.30;;;14.30;1.00;;;;;;5032621;28;20092;-38
2022/12/15 05:47:59;;;;;;;1.10;0.45;;;14.30;1.00;;;;;;5032818;28;20063;-38
2022/12/15 05:50:26;;;;;;;1.70;0.40;;;14.30;1.00;;;;;;5032451;28;20065;-38
2022/12/15 05:52:57;;;;;;;2.95;0.68;;;14.30;1.00;;;;;;5032465;28;20124;-39
2022/12/15 05:55:23;;;;;;;0.40;0.20;;;14.30;1.00;;;;;;5032695;28;20095;-38
2022/12/15 05:57:52;;;;;;;2.38;0.50;;;14.30;1.00;;;;;;5031670;28;20049;-38
2022/12/15 06:00:20;;;;;;;0.90;0.30;;;14.30;1.00;;;;;;5065600;28;20506;-38
2022/12/15 06:02:47;;;;;;;0.90;0.35;;;14.20;1.00;;;;;;5060071;28;20051;-38
2022/12/15 06:05:16;;;;;;;3.22;1.25;;;14.20;1.00;;;;;;5061440;28;20045;-38
2022/12/15 06:07:42;;;;;;;9.23;0.77;;;14.20;1.00;;;;;;5072405;28;20503;-38
2022/12/15 06:10:10;;;;;;;2.08;0.60;;;14.20;1.00;;;;;;5072172;28;20036;-38
2022/12/15 06:12:37;;;;;;;1.05;0.38;;;14.20;1.00;;;;;;5071875;28;20063;-38
2022/12/15 06:15:04;;;;;;;5.28;0.93;;;14.20;1.00;;;;;;5072040;28;20473;-38
2022/12/15 06:17:31;;;;;;;2.70;0.65;;;14.20;1.00;;;;;;5072194;28;20094;-38
2022/12/15 06:19:58;;;;;;;2.22;0.38;;;14.10;1.00;;;;;;5072053;28;20049;-38
2022/12/15 06:22:24;;;;;;;2.80;0.60;;;14.10;1.00;;;;;;5071939;28;20040;-38
2022/12/15 06:24:51;;;;;;;1.67;0.40;;;14.10;1.00;;;;;;5071727;28;20040;-38
2022/12/15 06:27:18;;;;;;;2.10;0.52;;;14.10;1.00;;;;;;5071774;28;20472;-38
2022/12/15 06:29:45;;;;;;;7.28;0.75;;;14.10;1.00;;;;;;5070800;28;20037;-38
2022/12/15 06:32:12;;;;;;;3.63;0.50;;;14.10;1.00;;;;;;5071916;28;20074;-38
2022/12/15 06:34:38;;;;;;;3.53;0.38;;;14.10;1.00;;;;;;5071809;28;20097;-38
2022/12/15 06:37:05;;;;;;;2.90;0.50;;;14.00;1.00;;;;;;5071993;28;20576;-38
2022/12/15 06:39:32;;;;;;;2.47;0.20;;;14.00;1.00;;;;;;5071617;28;20048;-38
2022/12/15 06:41:59;;;;;;;0.85;0.38;;;14.00;1.00;;;;;;5071550;28;20087;-38
2022/12/15 06:44:25;;;;;;;5.97;0.40;;;14.00;1.00;;;;;;5071646;28;20037;-38
2022/12/15 06:46:52;;;;;;;2.65;0.60;;;14.00;1.00;;;;;;5072135;28;20450;-38
2022/12/15 06:49:19;;;;;;;1.98;0.68;;;14.00;1.00;;;;;;5071890;28;20049;-38
2022/12/15 06:51:48;;;;;;;1.73;0.47;;;14.00;1.00;;;;;;5071730;28;20508;-38
2022/12/15 06:54:15;;;;;;;2.35;0.45;;;14.00;1.00;;;;;;5071344;28;20033;-38
2022/12/15 06:56:41;;;;;;;1.88;0.55;;;13.90;1.00;;;;;;5070517;28;20045;-38
2022/12/15 06:59:10;;;;;;;4.28;0.47;;;13.90;1.00;;;;;;5071762;28;20045;-38
2022/12/15 07:01:37;;;;;;;2.13;0.65;;;13.90;1.00;;;;;;5071731;28;20040;-38
2022/12/15 07:04:04;;;;;;;3.22;0.57;;;13.90;1.00;;;;;;5071217;28;20037;-38
2022/12/15 07:06:36;;;;;;;2.70;0.40;;;13.90;1.00;;;;;;5070389;28;20047;-38
2022/12/15 07:09:10;;;;;;;0.75;0.20;;;13.90;1.00;;;;;;5074248;28;20546;-38
2022/12/15 07:11:37;;;;;;;3.13;0.65;;;13.90;1.00;;;;;;5075644;28;20090;-38
2022/12/15 07:14:04;;;;;;;6.05;0.70;;;13.90;1.00;;;;;;5075131;28;20090;-38
2022/12/15 07:16:31;;;;;;;3.30;0.55;;;13.80;1.00;;;;;;5075552;28;20059;-38
2022/12/15 07:18:58;;;;;;;0.93;0.30;;;13.80;1.00;;;;;;5075507;28;20480;-38
2022/12/15 07:21:24;;;;;;;3.70;0.82;;;13.80;1.00;;;;;;5075433;28;20044;-38
2022/12/15 07:23:51;;;;;;;1.58;0.43;;;13.80;1.00;;;;;;5075128;28;20040;-38
2022/12/15 07:26:22;;;;;;;1.40;0.35;;;13.80;1.00;;;;;;5075202;28;20048;-38
2022/12/15 07:28:49;;;;;;;2.90;0.40;;;13.80;1.00;;;;;;5074117;28;20041;-38
2022/12/15 07:31:16;;;;;;;2.58;0.85;;;13.80;1.00;;;;;;5075256;28;20126;-38
2022/12/15 07:33:43;;;;;;;0.75;0.30;;;13.80;1.00;;;;;;5073637;28;20044;-38
2022/12/15 07:36:10;;;;;;;2.53;0.70;;;13.80;1.00;;;;;;5075257;28;20094;-38
2022/12/15 07:38:37;;;;;;;4.68;0.45;;;13.80;1.00;;;;;;5075248;28;20044;-39
2022/12/15 07:41:06;;;;;;;3.08;0.55;;;13.70;1.00;;;;;;5073677;28;20041;-38
2022/12/15 07:43:34;;;;;;;2.13;0.55;;;13.70;1.00;;;;;;5071823;28;20032;-38
2022/12/15 07:46:05;;;;;;;8.10;0.73;;;13.70;1.00;;;;;;5070388;28;20078;-38
2022/12/15 07:48:38;;;;;;;4.10;0.60;;;13.70;1.00;;;;;;5069209;28;20053;-38
2022/12/15 07:51:06;;;;;;;2.83;0.52;;;13.70;1.00;;;;;;5068343;28;20051;-38
2022/12/15 07:53:41;;;;;;;2.05;0.30;;;13.70;1.00;;;;;;5068231;28;20045;-38
2022/12/15 07:56:08;;;;;;;2.15;0.57;;;13.60;1.00;;;;;;5067982;28;20123;-38
2022/12/15 07:58:37;;;;;;;1.13;0.32;;;13.60;1.00;;;;;;5066065;28;20426;-38
2022/12/15 08:01:09;;;;;;;0.50;0.17;;;13.60;1.00;;;;;;5068459;28;20032;-38
2022/12/15 08:03:36;;;;;;;3.05;0.50;;;13.60;1.00;;;;;;5074099;28;20052;-38
2022/12/15 08:06:06;;;;;;;2.60;0.38;;;13.60;1.00;;;;;;5074479;28;20037;-38
2022/12/15 08:08:33;;;;;;;2.88;0.40;;;13.60;1.00;;;;;;5074490;28;20041;-38
2022/12/15 08:11:06;;;;;;;1.10;0.82;;;13.60;1.00;;;;;;5074566;28;20122;-38
2022/12/15 08:13:34;;;;;;;0.88;0.30;;;13.60;1.00;;;;;;5073935;28;20045;-38
2022/12/15 08:16:20;;;;;;;2.42;0.63;;;13.60;1.00;;;;;;5074213;28;20044;-38
2022/12/15 08:18:47;;;;;;;1.98;0.35;;;13.60;1.00;;;;;;5074303;28;20545;-38
2022/12/15 08:21:14;;;;;;;2.15;0.65;;;13.60;1.00;;;;;;5073401;28;20144;-38
2022/12/15 08:23:41;;;;;;;2.65;0.47;;;13.50;1.00;;;;;;5073624;28;20076;-38
2022/12/15 08:26:14;;;;;;;2.90;0.40;;;13.60;1.00;;;;;;5074195;28;20041;-38
2022/12/15 08:28:41;;;;;;;1.52;0.30;;;13.60;1.00;;;;;;5072914;28;20519;-38
2022/12/15 08:31:15;;;;;;;2.53;0.30;;;13.60;1.00;;;;;;5074152;28;20093;-38
2022/12/15 08:33:43;;;;;;;1.77;0.30;;;13.70;1.00;;;;;;5072421;28;20055;-38
2022/12/15 08:36:12;;;;;;;0.88;0.30;;;13.80;1.00;;;;;;5074046;28;20040;-38
2022/12/15 08:38:40;;;;;;;4.20;0.98;;;14.00;1.00;;;;;;5073977;28;20068;-38
2022/12/15 08:41:12;;;;;;;2.85;0.30;;;14.10;1.00;;;;;;5073905;28;20071;-38
2022/12/15 08:43:40;;;;;;;1.17;0.35;;;14.20;1.00;;;;;;5073667;28;20135;-38
2022/12/15 08:46:23;;;;;;;2.05;0.50;;;14.30;1.00;;;;;;5073861;28;20033;-38
2022/12/15 08:48:51;;;;;;;1.55;0.50;;;14.50;1.00;;;;;;5073661;28;20123;-38
2022/12/15 08:51:20;;;;;;;3.65;0.45;;;14.60;1.00;;;;;;5072534;28;20048;-38
2022/12/15 08:53:47;;;;;;;4.18;1.13;;;14.70;1.00;;;;;;5073205;28;20048;-39
2022/12/15 08:56:17;;;;;;;1.35;0.30;;;14.70;1.00;;;;;;5073814;28;20502;-38
2022/12/15 08:58:45;;;;;;;3.80;0.75;;;14.80;1.00;;;;;;5073664;28;20036;-38
2022/12/15 09:01:21;;;;;;;2.10;0.40;;;14.90;1.00;;;;;;5073496;28;20128;-38
2022/12/15 09:03:52;;;;;;;0.95;0.25;;;15.00;1.00;;;;;;5073129;28;20048;-38
2022/12/15 09:06:29;;;;;;;2.53;0.32;;;15.00;1.00;;;;;;5073443;28;20037;-38
2022/12/15 09:08:57;;;;;;;0.77;0.40;;;15.00;1.00;;;;;;5073478;28;20450;-38
2022/12/15 09:11:25;;;;;;;2.45;0.10;;;15.10;1.00;;;;;;5073404;28;20054;-38
2022/12/15 09:13:52;;;;;;;2.08;0.38;;;15.10;1.00;;;;;;5072705;28;20091;-38
2022/12/15 09:16:20;;;;;;;3.60;0.38;;;15.10;1.00;;;;;;5073356;28;20047;-38
2022/12/15 09:18:52;;;;;;;1.60;0.45;;;15.10;1.00;;;;;;5073450;28;20045;-38
2022/12/15 09:21:24;;;;;;;0.30;0.10;;;15.20;1.00;;;;;;5073129;28;20044;-38
2022/12/15 09:23:54;;;;;;;1.55;0.50;;;15.20;1.00;;;;;;5072726;28;20045;-38
2022/12/15 09:26:22;;;;;;;4.35;0.73;;;15.20;1.00;;;;;;5072770;28;20043;-38
2022/12/15 09:28:50;;;;;;;2.63;0.40;;;15.20;1.00;;;;;;5073015;28;20032;-38
2022/12/15 09:31:23;;;;;;;1.42;0.70;;;15.20;1.00;;;;;;5073211;28;20380;-38
2022/12/15 09:33:52;;;;;;;1.85;0.55;;;15.20;1.00;;;;;;5072609;28;20048;-38
2022/12/15 09:36:19;;;;;;;1.23;0.40;;;15.20;1.00;;;;;;5072834;28;20127;-38
2022/12/15 09:38:46;;;;;;;1.55;0.50;;;15.20;1.00;;;;;;5072590;28;20127;-38
2022/12/15 09:41:13;;;;;;;1.58;0.45;;;15.20;1.00;;;;;;5071586;28;20044;-38
2022/12/15 09:43:50;;;;;;;1.40;0.60;;;15.20;1.00;;;;;;5072369;28;20136;-39
2022/12/15 09:46:36;;;;;;;1.27;0.30;;;15.20;1.00;;;;;;5071242;28;20408;-38
2022/12/15 09:49:23;;;;;;;1.98;0.52;;;15.10;1.00;;;;;;5072710;28;20048;-38
2022/12/15 09:52:02;;;;;;;3.75;0.52;;;15.10;1.00;;;;;;5072936;28;20415;-38
2022/12/15 09:54:37;;;;;;;7.93;0.65;;;15.10;1.00;;;;;;5072226;28;20037;-38
2022/12/15 09:57:14;;;;;;;2.40;0.68;;;15.10;1.00;;;;;;5072508;28;20044;-38
2022/12/15 10:00:06;;;;;;;0.82;0.32;;;15.00;1.00;;;;;;5072360;28;20048;-38
2022/12/15 10:03:06;;;;;;;1.48;0.45;;;15.00;1.00;;;;;;5072128;28;20040;-38
2022/12/15 10:05:58;;;;;;;2.75;0.70;;;15.00;1.00;;;;;;5060928;28;20059;-38
2022/12/15 10:09:01;;;;;;;0.90;0.20;;;15.00;1.00;;;;;;5072247;28;20072;-38
2022/12/15 10:11:46;;;;;;;1.25;0.32;;;15.00;1.00;;;;;;5072120;28;20105;-38
2022/12/15 10:14:41;;;;;;;2.13;0.80;;;14.90;1.00;;;;;;5071722;28;20043;-38
2022/12/15 10:17:18;;;;;;;1.60;0.47;;;15.00;1.00;;;;;;5070981;28;20051;-38
2022/12/15 10:19:51;;;;;;;1.58;0.30;;;14.90;1.00;;;;;;5072212;28;20041;-38
2022/12/15 10:22:24;;;;;;;1.88;0.40;;;14.90;1.00;;;;;;5071727;28;20052;-38
2022/12/15 10:24:53;;;;;;;3.85;0.55;;;14.90;1.00;;;;;;5070665;28;20040;-38
2022/12/15 10:27:57;;;;;;;1.77;0.80;;;14.90;1.00;;;;;;5070759;28;20076;-38
2022/12/15 10:30:24;;;;;;;2.08;0.60;;;14.90;1.00;;;;;;5072072;28;20049;-38
2022/12/15 10:33:07;;;;;;;0.75;0.45;;;14.90;1.00;;;;;;5071451;28;20036;-38
2022/12/15 10:35:35;;;;;;;1.98;0.70;;;14.80;1.00;;;;;;5071954;28;20063;-38
2022/12/15 10:38:32;;;;;;;3.50;0.60;;;14.80;1.00;;;;;;5071817;28;20036;-38
2022/12/15 10:41:02;;;;;;;1.73;0.85;;;14.80;1.00;;;;;;5071557;28;20048;-38
2022/12/15 10:43:35;;;;;;;1.67;0.28;;;14.80;1.00;;;;;;5070822;28;20087;-38
2022/12/15 10:46:27;;;;;;;0.98;0.30;;;14.80;1.00;;;;;;5071666;28;20124;-37
2022/12/15 10:49:24;;;;;;;1.45;0.28;;;14.80;1.00;;;;;;5070524;28;20049;-37
2022/12/15 10:52:18;;;;;;;3.55;0.40;;;14.70;1.00;;;;;;5071696;28;20082;-37
2022/12/15 10:55:44;;;;;;;3.00;0.35;;;14.70;1.00;;;;;;5055005;28;20053;-37
2022/12/15 10:58:52;;;;;;;2.88;0.30;;;14.70;1.00;;;;;;5071887;28;20048;-38
2022/12/15 11:01:31;;;;;;;2.65;0.63;;;14.60;1.00;;;;;;5071517;28;20128;-38
2022/12/15 11:04:29;;;;;;;2.55;0.55;;;14.60;1.00;;;;;;5071189;28;20040;-38
2022/12/15 11:06:58;;;;;;;1.67;0.57;;;14.60;1.00;;;;;;5071582;28;20041;-38
2022/12/15 11:09:39;;;;;;;0.55;0.20;;;14.60;1.00;;;;;;5070401;28;20043;-37
2022/12/15 11:15:22;;;;;;;1.05;0.40;;;14.60;1.00;;;;;;5071434;28;20059;-38
2022/12/15 11:18:11;;;;;;;1.67;0.52;;;14.60;1.00;;;;;;5071496;28;20048;-38
2022/12/15 11:20:43;;;;;;;2.38;0.30;;;14.60;1.00;;;;;;5071479;28;20068;-38
2022/12/15 11:23:23;;;;;;;1.35;0.47;;;14.50;1.00;;;;;;5071128;28;20098;-38
2022/12/15 11:25:59;;;;;;;2.67;0.55;;;14.50;1.00;;;;;;5069809;28;20049;-38
2022/12/15 11:28:49;;;;;;;1.80;0.52;;;14.50;1.00;;;;;;5071481;28;20041;-38
2022/12/15 11:31:23;;;;;;;1.60;1.10;;;14.50;1.00;;;;;;5071189;28;20045;-38
2022/12/15 11:33:54;;;;;;;0.68;0.20;;;14.50;1.00;;;;;;5070931;28;20090;-38
2022/12/15 11:36:43;;;;;;;2.45;0.43;;;14.50;1.00;;;;;;5069845;28;20147;-38
2022/12/15 11:39:46;;;;;;;2.78;0.50;;;14.50;1.00;;;;;;5071392;28;20044;-38
2022/12/15 11:42:38;;;;;;;2.35;0.50;;;14.50;1.00;;;;;;5064362;28;20053;-38
2022/12/15 11:45:35;;;;;;;1.70;0.35;;;14.40;1.00;;;;;;5071155;28;20051;-38
2022/12/15 11:48:20;;;;;;;1.13;0.28;;;14.40;1.00;;;;;;5071130;28;20036;-38
2022/12/15 11:50:51;;;;;;;1.38;0.47;;;14.40;1.00;;;;;;5071073;28;20063;-38
2022/12/15 11:53:24;;;;;;;1.67;0.38;;;14.40;1.00;;;;;;5070810;28;20041;-38
2022/12/15 11:56:02;;;;;;;1.02;0.45;;;14.40;1.00;;;;;;5073160;28;20488;-38
2022/12/15 11:58:55;;;;;;;0.75;0.45;;;14.40;1.00;;;;;;5074511;28;20049;-37
2022/12/15 12:01:48;;;;;;;2.65;0.63;;;14.30;1.00;;;;;;5074718;28;20102;-38
2022/12/15 12:05:02;;;;;;;1.50;0.40;;;14.30;1.00;;;;;;5074306;28;20055;-38
2022/12/15 12:07:45;;;;;;;2.65;0.68;;;14.30;1.00;;;;;;5074555;28;20411;-38
2022/12/15 12:10:23;;;;;;;2.67;0.65;;;14.30;1.00;;;;;;5075040;28;20075;-38
2022/12/15 12:13:00;;;;;;;3.25;0.85;;;14.30;1.00;;;;;;5072786;28;20124;-38
2022/12/15 12:15:42;;;;;;;0.75;0.30;;;14.30;1.00;;;;;;5074367;28;20102;-38
2022/12/15 12:18:40;;;;;;;1.58;0.30;;;14.30;1.00;;;;;;5073144;28;20068;-38
2022/12/15 12:21:12;;;;;;;1.90;0.60;;;14.30;1.00;;;;;;5074233;28;20044;-37
2022/12/15 12:23:41;;;;;;;2.67;0.73;;;14.20;1.00;;;;;;5074277;28;20045;-38
2022/12/15 12:26:30;;;;;;;3.05;0.80;;;14.20;1.00;;;;;;5074061;28;20036;-38
2022/12/15 12:29:27;;;;;;;2.08;0.30;;;14.20;1.00;;;;;;5074774;28;20395;-38
2022/12/15 12:32:08;;;;;;;2.47;0.70;;;14.20;1.00;;;;;;5072826;28;20043;-38
2022/12/15 12:35:15;;;;;;;1.92;0.50;;;14.20;1.00;;;;;;5073954;28;20058;-38
2022/12/15 12:38:00;;;;;;;1.35;0.50;;;14.20;1.00;;;;;;5051464;28;20045;-38
2022/12/15 12:41:11;;;;;;;1.20;0.60;;;14.20;1.00;;;;;;5051581;28;20040;-37
2022/12/15 12:43:40;;;;;;;3.63;0.60;;;14.10;1.00;;;;;;5071633;28;20117;-37
2022/12/15 12:46:24;;;;;;;3.45;0.75;;;14.10;1.00;;;;;;5073797;28;20488;-38
2022/12/15 12:48:59;;;;;;;1.77;0.77;;;14.10;1.00;;;;;;5073813;28;20040;-37
2022/12/15 12:51:36;;;;;;;1.13;0.73;;;14.10;1.00;;;;;;5072369;28;20040;-37
2022/12/15 12:54:34;;;;;;;1.73;0.40;;;14.10;1.00;;;;;;5073402;28;20068;-37
2022/12/15 12:57:40;;;;;;;0.88;0.38;;;14.10;1.00;;;;;;5073565;28;20048;-37
2022/12/15 13:00:07;;;;;;;1.90;0.30;;;14.10;1.00;;;;;;5073544;28;20045;-38
2022/12/15 13:02:36;;;;;;;2.85;0.85;;;14.10;1.00;;;;;;5073093;28;20049;-37
2022/12/15 13:05:34;;;;;;;1.83;0.50;;;14.10;1.00;;;;;;5073377;28;20098;-38
2022/12/15 13:08:04;;;;;;;1.85;0.75;;;14.10;1.00;;;;;;5072067;28;20400;-38
2022/12/15 13:10:33;;;;;;;1.38;0.30;;;14.00;1.00;;;;;;5073382;28;20040;-37
2022/12/15 13:13:30;;;;;;;1.58;0.30;;;14.00;1.00;;;;;;5072853;28;20044;-38
2022/12/15 13:16:05;;;;;;;4.47;0.73;;;14.00;1.00;;;;;;5073328;28;20048;-37
2022/12/15 13:19:05;;;;;;;2.00;0.40;;;14.00;1.00;;;;;;5073212;28;20161;-38
2022/12/15 13:21:53;;;;;;;4.43;0.47;;;14.00;1.00;;;;;;5070156;28;20101;-38
2022/12/15 13:24:40;;;;;;;8.07;1.08;;;14.00;1.00;;;;;;5069034;28;20029;-38
2022/12/15 13:27:13;;;;;;;4.25;0.70;;;14.00;1.00;;;;;;5070887;28;20051;-38
2022/12/15 13:30:08;;;;;;;9.65;1.10;;;14.00;1.00;;;;;;5067307;28;20036;-38
2022/12/15 13:32:40;;;;;;;6.50;1.33;;;14.00;1.00;;;;;;5063165;28;20040;-38
2022/12/15 13:35:13;;;;;;;3.22;1.00;;;13.90;1.00;;;;;;5063927;28;20071;-38
2022/12/15 13:37:52;;;;;;;4.43;1.20;;;13.90;1.00;;;;;;5073157;28;20075;-38
2022/12/15 13:40:21;;;;;;;8.27;1.17;;;13.90;1.00;;;;;;5064985;28;20054;-38
2022/12/15 13:43:15;;;;;;;7.05;2.15;;;13.90;1.00;;;;;;5063931;28;20032;-38
2022/12/15 13:45:52;;;;;;;4.88;1.20;;;13.90;1.00;;;;;;5068516;28;20080;-37
2022/12/15 13:48:40;;;;;;;8.52;1.40;;;13.90;1.00;;;;;;5072727;28;20068;-38
2022/12/15 13:51:28;;;;;;;7.82;1.10;;;13.90;1.00;;;;;;5063806;28;20040;-37
2022/12/15 13:54:08;;;;;;;6.22;0.70;;;13.90;1.00;;;;;;5061109;28;20489;-38
2022/12/15 13:56:46;;;;;;;7.05;0.82;;;13.90;1.00;;;;;;5052261;28;20116;-38
2022/12/15 13:59:34;;;;;;;5.70;0.40;;;13.90;1.00;;;;;;5060545;28;20087;-38
2022/12/15 14:02:01;;;;;;;8.13;1.00;;;13.90;1.00;;;;;;5038936;28;20057;-38
2022/12/15 14:04:28;;;;;;;2.45;0.50;;;13.80;1.00;;;;;;5052136;28;20118;-37
2022/12/15 14:07:04;;;;;;;8.63;1.08;;;13.80;1.00;;;;;;5052268;28;20053;-38
2022/12/15 14:09:39;;;;;;;1.75;0.30;;;13.80;1.00;;;;;;5052122;28;20045;-38
2022/12/15 14:12:12;;;;;;;4.07;0.80;;;13.80;1.00;;;;;;5052151;28;20102;-38
2022/12/15 14:14:45;;;;;;;8.52;1.30;;;13.80;1.00;;;;;;5051747;28;20041;-38
2022/12/15 14:17:16;;;;;;;4.65;0.50;;;13.80;1.00;;;;;;5051224;28;20069;-38
2022/12/15 14:19:46;;;;;;;3.20;0.70;;;13.80;1.00;;;;;;5051943;28;20079;-38
2022/12/15 14:22:27;;;;;;;;;;;13.80;1.00;;;;;;5050503;28;20041;-38
2022/12/15 14:25:24;;;;;;;3.13;0.45;;;13.80;1.00;;;;;;5051581;28;19959;-38
2022/12/15 14:27:51;;;;;;;4.80;0.60;;;13.70;1.00;;;;;;5051971;28;20041;-38
2022/12/15 14:30:22;;;;;;;1.83;0.70;;;13.70;1.00;;;;;;5053908;28;20044;-38
2022/12/15 14:32:58;;;;;;;5.00;0.57;;;13.70;1.00;;;;;;5043339;28;20075;-38
2022/12/15 14:35:38;;;;;;;5.63;0.60;;;13.70;1.00;;;;;;5056473;28;20037;-38
2022/12/15 14:38:13;;;;;;;2.30;0.40;;;13.70;1.00;;;;;;5063566;28;20072;-38
2022/12/15 14:40:41;;;;;;;1.65;0.47;;;13.70;1.00;;;;;;5071884;28;20056;-38
2022/12/15 14:43:36;;;;;;;7.07;0.82;;;13.60;1.00;;;;;;5067787;28;20056;-38
2022/12/15 14:46:14;;;;;;;3.28;1.10;;;13.60;1.00;;;;;;5060408;28;20460;-38
2022/12/15 14:49:01;;;;;;;1.40;0.57;;;13.60;1.00;;;;;;5063213;28;20044;-38
2022/12/15 14:51:38;;;;;;;3.03;0.80;;;13.60;1.00;;;;;;5067714;28;20502;-38
2022/12/15 14:54:05;;;;;;;2.13;0.55;;;13.60;1.00;;;;;;5069981;28;20039;-38
2022/12/15 14:56:31;;;;;;;2.08;0.40;;;13.60;1.00;;;;;;5071563;28;20465;-38
2022/12/15 14:59:16;;;;;;;3.50;0.43;;;13.60;1.00;;;;;;5071593;28;20470;-38
2022/12/15 15:01:51;;;;;;;3.28;1.27;;;13.60;1.00;;;;;;5064805;28;20045;-38
2022/12/15 15:04:29;;;;;;;2.78;0.52;;;13.60;1.00;;;;;;5052545;28;20072;-38
2022/12/15 15:06:59;;;;;;;3.92;0.85;;;13.60;1.00;;;;;;5065471;28;20047;-38
2022/12/15 15:09:29;;;;;;;5.07;0.60;;;13.70;1.00;;;;;;5061106;28;20496;-38
2022/12/15 15:12:03;;;;;;;1.25;0.40;;;13.80;1.00;;;;;;5058675;28;20037;-38
2022/12/15 15:14:37;;;;;;;5.78;1.27;;;13.90;1.00;;;;;;5050947;28;20401;-38
2022/12/15 15:17:13;;;;;;;3.38;0.68;;;14.00;1.00;;;;;;5051485;28;20128;-38
2022/12/15 15:19:48;;;;;;;1.60;0.60;;;14.10;1.00;;;;;;5048556;28;20077;-38
2022/12/15 15:22:32;;;;;;;2.40;0.38;;;14.20;1.00;;;;;;5046547;28;20102;-38
2022/12/15 15:24:59;;;;;;;5.78;0.60;;;14.30;1.00;;;;;;5050127;28;20083;-38
2022/12/15 15:27:34;;;;;;;3.95;0.65;;;14.50;1.00;;;;;;5051097;28;20562;-39
2022/12/15 15:30:27;;;;;;;2.65;0.30;;;14.60;1.00;;;;;;5053783;28;20067;-39
2022/12/15 15:32:58;;;;;;;0.77;0.30;;;14.80;1.00;;;;;;5045994;28;20053;-39
2022/12/15 15:35:30;;;;;;;2.88;0.30;;;14.80;1.00;;;;;;5057540;28;20037;-39
2022/12/15 15:38:02;;;;;;;2.10;1.13;;;14.90;1.00;;;;;;5053346;28;20068;-39
2022/12/15 15:40:29;;;;;;;7.95;0.80;;;15.00;1.00;;;;;;5058658;28;20275;-39
2022/12/15 15:42:56;;;;;;;5.65;0.50;;;15.10;1.00;;;;;;5071226;28;20054;-39
2022/12/15 15:45:23;;;;;;;0.65;0.40;;;15.20;1.00;;;;;;5054340;28;20082;-39
2022/12/15 15:47:51;;;;;;;1.95;0.43;;;15.20;1.00;;;;;;5071118;28;20045;-39
2022/12/15 15:50:28;;;;;;;4.07;0.77;;;15.30;1.00;;;;;;5058813;28;20075;-39
2022/12/15 15:52:56;;;;;;;5.13;0.77;;;15.30;1.00;;;;;;5074614;28;20049;-39
2022/12/15 15:55:30;;;;;;;4.13;0.32;;;15.40;1.00;;;;;;5074879;28;20123;-39
2022/12/15 15:58:11;;;;;;;1.48;0.60;;;15.40;1.00;;;;;;5074813;28;20044;-39
2022/12/15 16:00:38;;;;;;;;;;;15.40;1.00;;;;;;5075243;28;20586;-39
2022/12/15 16:03:05;;;;;;;3.65;0.70;;;15.40;1.00;;;;;;5074346;28;19938;-39